Time;durP1;ratioP1;P1;durP2;ratioP2;P2;SDS_P1;SDS_P2;PMS_P1;PMS_P2;Temp;Humidity;BMP_temperature;BMP_pressure;BME280_temperature;BME280_humidity;BME280_pressure;Samples;Min_cycle;Max_cycle;Signal;HPM_P1;HPM_P2
2022/04/15 00:02:21;;;;;;;17.13;5.70;;;8.10;99.90;;;;;;4857163;29;20461;-82
2022/04/15 00:04:47;;;;;;;17.42;6.00;;;8.10;99.90;;;;;;4856911;29;20041;-82
2022/04/15 00:07:13;;;;;;;22.02;7.07;;;8.10;99.90;;;;;;4860016;29;20401;-82
2022/04/15 00:09:38;;;;;;;11.98;5.20;;;8.10;99.90;;;;;;4859802;29;20083;-82
2022/04/15 00:12:17;;;;;;;15.98;6.00;;;8.10;99.90;;;;;;4860891;29;20053;-81
2022/04/15 00:14:44;;;;;;;11.52;5.80;;;8.10;99.90;;;;;;4844891;29;20041;-82
2022/04/15 00:17:11;;;;;;;14.52;5.43;;;8.40;99.90;;;;;;4860663;29;20773;-82
2022/04/15 00:19:37;;;;;;;19.25;6.20;;;8.10;99.90;;;;;;4845226;29;20152;-82
2022/04/15 00:22:03;;;;;;;16.27;6.45;;;8.10;99.90;;;;;;4860369;29;20148;-82
2022/04/15 00:24:28;;;;;;;13.80;5.40;;;8.20;99.90;;;;;;4860121;29;20132;-81
2022/04/15 00:26:54;;;;;;;14.07;5.32;;;8.20;99.90;;;;;;4860517;29;20045;-82
2022/04/15 00:29:20;;;;;;;16.33;5.82;;;8.20;99.90;;;;;;4859842;29;20522;-82
2022/04/15 00:31:45;;;;;;;13.95;5.65;;;8.40;99.90;;;;;;4859174;29;20132;-82
2022/04/15 00:34:11;;;;;;;12.63;5.05;;;8.30;99.90;;;;;;4860871;29;20049;-82
2022/04/15 00:36:36;;;;;;;10.95;5.85;;;8.40;99.90;;;;;;4860259;29;20449;-82
2022/04/15 00:39:02;;;;;;;11.55;4.97;;;8.20;99.90;;;;;;4859978;29;20065;-82
2022/04/15 00:41:28;;;;;;;13.35;4.95;;;9.00;99.90;;;;;;4860851;29;20055;-82
2022/04/15 00:43:55;;;;;;;18.77;5.10;;;8.80;99.90;;;;;;4858009;29;20053;-82
2022/04/15 00:46:21;;;;;;;11.70;4.35;;;8.30;99.90;;;;;;4860676;29;20502;-82
2022/04/15 00:48:47;;;;;;;12.52;4.72;;;9.00;99.90;;;;;;4859808;29;20164;-82
2022/04/15 00:51:12;;;;;;;15.30;4.10;;;8.30;99.90;;;;;;4859884;29;20053;-82
2022/04/15 00:53:40;;;;;;;12.68;4.70;;;8.30;99.90;;;;;;4860541;29;20044;-82
2022/04/15 00:56:08;;;;;;;12.15;3.42;;;8.60;99.90;;;;;;4844234;29;20148;-82
2022/04/15 00:58:38;;;;;;;17.23;3.78;;;8.30;99.90;;;;;;4844249;29;20049;-82
2022/04/15 01:01:05;;;;;;;9.73;3.00;;;8.30;99.90;;;;;;4858516;29;20070;-83
2022/04/15 01:03:32;;;;;;;12.95;3.70;;;9.10;99.90;;;;;;4844988;29;20085;-83
2022/04/15 01:05:59;;;;;;;10.93;3.03;;;8.30;99.90;;;;;;4843497;29;20076;-82
2022/04/15 01:08:28;;;;;;;9.50;2.40;;;9.00;99.90;;;;;;4844907;29;20489;-82
2022/04/15 01:10:58;;;;;;;11.40;3.05;;;8.40;99.90;;;;;;4858852;29;20079;-82
2022/04/15 01:13:25;;;;;;;9.30;3.38;;;8.30;99.90;;;;;;4844294;29;20516;-81
2022/04/15 01:15:54;;;;;;;10.52;3.55;;;8.40;99.90;;;;;;4858508;29;20375;-82
2022/04/15 01:18:20;;;;;;;12.98;3.88;;;8.40;99.90;;;;;;4843845;29;20553;-83
2022/04/15 01:20:48;;;;;;;11.35;3.47;;;8.30;99.90;;;;;;4858738;29;20600;-82
2022/04/15 01:23:14;;;;;;;10.23;3.65;;;8.40;99.90;;;;;;4844896;29;20052;-82
2022/04/15 01:25:39;;;;;;;14.10;3.80;;;8.60;99.90;;;;;;4860106;29;20482;-82
2022/04/15 01:28:05;;;;;;;11.57;3.35;;;8.30;99.90;;;;;;4858358;29;20486;-82
2022/04/15 01:30:31;;;;;;;10.80;3.58;;;8.40;99.90;;;;;;4844037;29;20812;-82
2022/04/15 01:32:57;;;;;;;12.40;3.50;;;8.50;99.90;;;;;;4858184;29;20078;-82
2022/04/15 01:35:22;;;;;;;13.48;3.55;;;8.30;99.90;;;;;;4859964;29;20049;-82
2022/04/15 01:37:49;;;;;;;8.05;3.25;;;8.40;99.90;;;;;;4859319;29;20076;-82
2022/04/15 01:40:17;;;;;;;11.52;3.47;;;8.40;99.90;;;;;;4843182;29;20045;-82
2022/04/15 01:42:44;;;;;;;15.60;4.75;;;8.30;99.90;;;;;;4844572;29;20048;-82
2022/04/15 01:45:11;;;;;;;13.38;4.05;;;8.50;99.90;;;;;;4843318;29;20450;-82
2022/04/15 01:47:37;;;;;;;17.50;4.68;;;8.70;99.90;;;;;;4859557;29;20107;-83
2022/04/15 01:50:05;;;;;;;15.02;5.38;;;8.70;99.90;;;;;;4858513;29;20513;-82
2022/04/15 01:52:31;;;;;;;11.73;4.28;;;8.40;99.90;;;;;;4859771;29;20041;-82
2022/04/15 01:54:56;;;;;;;19.27;5.00;;;8.70;99.90;;;;;;4858141;29;20084;-82
2022/04/15 01:57:23;;;;;;;18.40;5.25;;;8.40;99.90;;;;;;4859247;29;20065;-82
2022/04/15 01:59:48;;;;;;;14.13;5.22;;;8.50;99.90;;;;;;4858006;29;20131;-81
2022/04/15 02:02:14;;;;;;;15.55;5.03;;;8.30;99.90;;;;;;4858684;29;20140;-82
2022/04/15 02:04:40;;;;;;;14.73;4.15;;;8.30;99.90;;;;;;4859329;29;20564;-81
2022/04/15 02:07:05;;;;;;;9.50;3.50;;;8.30;99.90;;;;;;4858962;29;20070;-82
2022/04/15 02:09:31;;;;;;;9.98;2.45;;;8.90;99.90;;;;;;4857586;29;20453;-82
2022/04/15 02:11:57;;;;;;;10.23;3.38;;;8.40;99.90;;;;;;4858975;29;20056;-82
2022/04/15 02:14:23;;;;;;;14.00;4.55;;;8.30;99.90;;;;;;4858184;29;20076;-81
2022/04/15 02:16:53;;;;;;;9.43;3.58;;;8.30;99.90;;;;;;4858039;29;20486;-81
2022/04/15 02:19:20;;;;;;;16.73;5.03;;;8.80;99.90;;;;;;4858640;29;20494;-81
2022/04/15 02:21:45;;;;;;;18.20;5.00;;;9.00;99.90;;;;;;4858483;29;20048;-81
2022/04/15 02:24:11;;;;;;;22.05;6.43;;;8.40;99.90;;;;;;4858468;29;20109;-81
2022/04/15 02:26:37;;;;;;;21.15;5.65;;;8.30;99.90;;;;;;4858769;29;20512;-82
2022/04/15 02:29:03;;;;;;;22.65;5.90;;;8.30;99.90;;;;;;4857236;29;20643;-81
2022/04/15 02:31:28;;;;;;;21.13;6.00;;;8.30;99.90;;;;;;4858119;29;20053;-81
2022/04/15 02:33:54;;;;;;;29.42;7.85;;;8.30;99.90;;;;;;4858046;29;20045;-81
2022/04/15 02:36:20;;;;;;;17.98;9.20;;;9.00;99.90;;;;;;4857885;29;20060;-82
2022/04/15 02:38:45;;;;;;;18.80;9.90;;;8.30;99.90;;;;;;4857640;29;20097;-82
2022/04/15 02:41:11;;;;;;;22.33;12.57;;;8.30;99.90;;;;;;4858785;29;20092;-82
2022/04/15 02:43:38;;;;;;;23.23;13.27;;;8.20;99.90;;;;;;4857782;29;20057;-82
2022/04/15 02:46:09;;;;;;;21.52;14.02;;;9.00;99.90;;;;;;4857446;29;20048;-82
2022/04/15 02:48:35;;;;;;;24.80;13.68;;;8.20;99.90;;;;;;4858406;29;20569;-82
2022/04/15 02:51:02;;;;;;;20.80;13.77;;;8.10;99.90;;;;;;4857227;29;20045;-82
2022/04/15 02:53:29;;;;;;;18.85;12.15;;;8.10;99.90;;;;;;4858581;29;20049;-81
2022/04/15 02:55:55;;;;;;;20.17;11.80;;;8.00;99.90;;;;;;4857245;29;20128;-81
2022/04/15 02:58:21;;;;;;;17.80;11.25;;;8.60;99.90;;;;;;4858108;29;20190;-82
2022/04/15 03:00:47;;;;;;;16.95;11.02;;;8.30;99.90;;;;;;4856498;29;20615;-81
2022/04/15 03:03:13;;;;;;;15.02;9.70;;;8.40;99.90;;;;;;4858665;29;20148;-82
2022/04/15 03:05:39;;;;;;;17.02;9.13;;;8.30;99.90;;;;;;4842026;29;20555;-81
2022/04/15 03:08:05;;;;;;;11.43;7.68;;;8.10;99.90;;;;;;4857592;29;20060;-81
2022/04/15 03:10:31;;;;;;;10.50;6.60;;;7.80;99.90;;;;;;4842501;29;20145;-82
2022/04/15 03:12:56;;;;;;;7.47;6.32;;;7.70;99.90;;;;;;4856593;29;20093;-81
2022/04/15 03:15:22;;;;;;;11.02;6.63;;;7.70;99.90;;;;;;4857207;29;20056;-81
2022/04/15 03:17:48;;;;;;;8.52;6.10;;;7.60;99.90;;;;;;4857451;29;20065;-82
2022/04/15 03:20:14;;;;;;;7.93;5.85;;;7.60;99.90;;;;;;4842025;29;20033;-82
2022/04/15 03:22:41;;;;;;;9.05;5.80;;;7.50;99.90;;;;;;4858069;29;20490;-82
2022/04/15 03:25:10;;;;;;;12.27;6.57;;;7.50;99.90;;;;;;4842028;29;20512;-81
2022/04/15 03:27:36;;;;;;;8.40;5.70;;;7.40;99.90;;;;;;4857491;29;20048;-82
2022/04/15 03:30:02;;;;;;;9.88;6.05;;;7.40;99.90;;;;;;4856288;29;20049;-81
2022/04/15 03:32:28;;;;;;;10.77;6.20;;;7.30;99.90;;;;;;4842256;29;20506;-81
2022/04/15 03:34:56;;;;;;;10.00;5.80;;;7.30;99.90;;;;;;4856954;29;20135;-81
2022/04/15 03:37:22;;;;;;;11.02;6.25;;;7.20;99.90;;;;;;4858071;29;20455;-82
2022/04/15 03:39:48;;;;;;;8.40;5.65;;;7.80;99.90;;;;;;4841412;29;20113;-82
2022/04/15 03:42:13;;;;;;;8.55;5.75;;;7.10;99.90;;;;;;4859454;29;20059;-82
2022/04/15 03:44:45;;;;;;;9.10;5.97;;;7.50;99.90;;;;;;4861043;29;20060;-82
2022/04/15 03:47:11;;;;;;;10.07;6.57;;;7.00;99.90;;;;;;4845219;29;20140;-82
2022/04/15 03:49:36;;;;;;;9.23;6.45;;;8.10;99.90;;;;;;4861432;29;20128;-81
2022/04/15 03:52:02;;;;;;;8.20;5.50;;;6.50;99.90;;;;;;4860677;29;20105;-82
2022/04/15 03:54:28;;;;;;;9.27;5.55;;;7.00;99.90;;;;;;4845299;29;20045;-82
2022/04/15 03:56:54;;;;;;;10.13;5.72;;;7.00;99.90;;;;;;4860721;29;20826;-82
2022/04/15 03:59:40;;;;;;;7.45;5.43;;;7.00;99.90;;;;;;4860482;29;20055;-82
2022/04/15 04:02:05;;;;;;;6.28;5.28;;;7.90;99.90;;;;;;4859896;29;20116;-82
2022/04/15 04:04:31;;;;;;;8.23;5.50;;;7.70;99.90;;;;;;4846015;29;20057;-82
2022/04/15 04:06:56;;;;;;;9.13;5.40;;;7.40;99.90;;;;;;4861088;29;20398;-82
2022/04/15 04:09:22;;;;;;;9.80;5.45;;;8.00;99.90;;;;;;4860877;29;20405;-82
2022/04/15 04:11:48;;;;;;;7.85;4.90;;;7.20;99.90;;;;;;4860491;29;20049;-81
2022/04/15 04:14:13;;;;;;;9.38;5.28;;;7.20;99.90;;;;;;4859644;29;20045;-82
2022/04/15 04:16:39;;;;;;;8.88;5.07;;;7.90;99.90;;;;;;4860605;29;20072;-82
2022/04/15 04:19:04;;;;;;;6.30;4.05;;;8.10;99.90;;;;;;4859812;29;20148;-82
2022/04/15 04:21:33;;;;;;;8.98;4.80;;;7.30;99.90;;;;;;4845590;29;20053;-81
2022/04/15 04:23:59;;;;;;;6.88;3.50;;;7.20;99.90;;;;;;4844481;29;20088;-82
2022/04/15 04:26:28;;;;;;;6.22;3.35;;;7.20;99.90;;;;;;4860964;29;20084;-82
2022/04/15 04:28:53;;;;;;;7.28;3.72;;;7.90;99.90;;;;;;4858835;29;20052;-82
2022/04/15 04:31:20;;;;;;;6.32;4.07;;;7.10;99.90;;;;;;4860449;29;20053;-82
2022/04/15 04:33:46;;;;;;;4.95;3.33;;;8.00;99.90;;;;;;4860105;29;20053;-81
2022/04/15 04:36:11;;;;;;;12.25;3.97;;;7.20;99.90;;;;;;4844757;29;20059;-81
2022/04/15 04:38:37;;;;;;;7.63;4.20;;;8.00;99.90;;;;;;4845604;29;20048;-82
2022/04/15 04:41:03;;;;;;;6.15;3.75;;;7.60;99.90;;;;;;4859998;29;20057;-80
2022/04/15 04:43:29;;;;;;;8.07;4.03;;;7.50;99.90;;;;;;4859807;29;20049;-81
2022/04/15 04:45:55;;;;;;;8.15;4.35;;;7.20;99.90;;;;;;4876380;29;20037;-82
2022/04/15 04:48:21;;;;;;;6.10;4.10;;;7.10;99.90;;;;;;4860256;29;20045;-81
2022/04/15 04:50:47;;;;;;;7.70;3.58;;;7.90;99.90;;;;;;4859176;29;20060;-82
2022/04/15 04:53:22;;;;;;;8.70;4.40;;;7.80;99.90;;;;;;4860532;29;20109;-82
2022/04/15 04:55:48;;;;;;;7.03;4.07;;;6.60;99.90;;;;;;4859600;29;20049;-82
2022/04/15 04:58:13;;;;;;;5.88;3.25;;;7.80;99.90;;;;;;4850320;29;20037;-83
2022/04/15 05:00:39;;;;;;;13.45;3.50;;;8.10;99.90;;;;;;4852188;29;20111;-82
2022/04/15 05:03:05;;;;;;;6.43;4.10;;;7.70;99.90;;;;;;4853267;29;20417;-82
2022/04/15 05:05:30;;;;;;;10.57;4.60;;;7.10;99.90;;;;;;4866577;29;20477;-82
2022/04/15 05:07:56;;;;;;;6.63;4.35;;;7.10;99.90;;;;;;4864415;29;20515;-82
2022/04/15 05:10:23;;;;;;;8.15;4.60;;;7.10;99.90;;;;;;4860805;29;20057;-82
2022/04/15 05:12:49;;;;;;;10.82;5.00;;;7.10;99.90;;;;;;4863870;29;20075;-81
2022/04/15 05:15:15;;;;;;;9.85;5.25;;;8.10;99.90;;;;;;4875470;29;20485;-82
2022/04/15 05:17:41;;;;;;;9.05;5.03;;;7.90;99.90;;;;;;4854506;29;20454;-82
2022/04/15 05:20:07;;;;;;;11.48;6.15;;;7.60;99.90;;;;;;4858315;29;20218;-81
2022/04/15 05:22:33;;;;;;;11.65;5.68;;;7.10;99.90;;;;;;4859447;29;20056;-81
2022/04/15 05:24:59;;;;;;;11.48;6.35;;;7.10;99.90;;;;;;4883390;29;20047;-81
2022/04/15 05:27:24;;;;;;;12.48;6.32;;;7.10;99.90;;;;;;4896975;29;20060;-82
2022/04/15 05:29:50;;;;;;;13.70;6.57;;;7.10;99.90;;;;;;4879095;29;20051;-82
2022/04/15 05:32:16;;;;;;;12.55;7.43;;;7.10;99.90;;;;;;4880612;29;20083;-82
2022/04/15 05:34:42;;;;;;;10.80;7.10;;;7.40;99.90;;;;;;4896172;29;20055;-81
2022/04/15 05:37:09;;;;;;;13.85;7.63;;;7.00;99.90;;;;;;4895293;29;20043;-82
2022/04/15 05:39:34;;;;;;;14.27;7.90;;;7.40;99.90;;;;;;4892338;29;20517;-81
2022/04/15 05:42:00;;;;;;;13.40;8.15;;;7.10;99.90;;;;;;4877733;29;20052;-81
2022/04/15 05:44:26;;;;;;;16.35;8.60;;;7.10;99.90;;;;;;4893957;29;20053;-81
2022/04/15 05:46:51;;;;;;;12.23;8.07;;;8.10;99.90;;;;;;4875792;29;20079;-81
2022/04/15 05:49:18;;;;;;;11.13;7.70;;;7.20;99.90;;;;;;4878707;29;20043;-82
2022/04/15 05:51:46;;;;;;;14.40;8.57;;;7.20;99.90;;;;;;4878842;29;20507;-82
2022/04/15 05:54:12;;;;;;;12.23;7.80;;;7.20;99.90;;;;;;4875982;29;20131;-82
2022/04/15 05:56:38;;;;;;;15.95;8.98;;;7.20;99.90;;;;;;4878748;29;20131;-82
2022/04/15 05:59:04;;;;;;;14.07;8.18;;;7.20;99.90;;;;;;4892308;29;20496;-81
2022/04/15 06:01:30;;;;;;;15.75;8.10;;;7.30;99.90;;;;;;4891984;29;20420;-82
2022/04/15 06:03:56;;;;;;;15.55;8.27;;;7.30;99.90;;;;;;4892924;29;20127;-82
2022/04/15 06:06:22;;;;;;;12.18;8.38;;;7.30;99.90;;;;;;4876033;29;20084;-82
2022/04/15 06:08:50;;;;;;;18.02;9.02;;;7.90;99.90;;;;;;4891980;29;20124;-81
2022/04/15 06:11:16;;;;;;;19.33;8.50;;;8.40;99.90;;;;;;4873674;29;20052;-82
2022/04/15 06:13:46;;;;;;;13.98;8.32;;;8.40;99.90;;;;;;4877929;29;20056;-81
2022/04/15 06:16:17;;;;;;;13.30;7.95;;;7.70;99.90;;;;;;4890206;29;20075;-82
2022/04/15 06:18:43;;;;;;;13.82;8.55;;;7.40;99.90;;;;;;4877749;29;20044;-81
2022/04/15 06:21:08;;;;;;;14.30;8.85;;;7.50;99.90;;;;;;4892866;29;20040;-82
2022/04/15 06:23:34;;;;;;;13.15;9.57;;;7.50;99.90;;;;;;4891831;29;20052;-81
2022/04/15 06:26:00;;;;;;;17.17;10.50;;;7.50;99.90;;;;;;4876607;29;20044;-81
2022/04/15 06:28:26;;;;;;;19.60;11.23;;;7.60;99.90;;;;;;4877435;29;20389;-82
2022/04/15 06:30:52;;;;;;;20.02;9.93;;;7.70;99.90;;;;;;4891513;29;20076;-81
2022/04/15 06:33:20;;;;;;;17.85;11.10;;;7.90;99.90;;;;;;4893089;29;20048;-82
2022/04/15 06:35:51;;;;;;;19.67;11.70;;;8.00;99.90;;;;;;4877567;29;20115;-82
2022/04/15 06:38:23;;;;;;;15.40;11.48;;;7.80;99.90;;;;;;4904042;29;20052;-81
2022/04/15 06:40:57;;;;;;;20.23;12.90;;;7.70;99.90;;;;;;4854204;29;20152;-82
2022/04/15 06:43:22;;;;;;;23.58;12.43;;;7.80;99.90;;;;;;4868621;29;20085;-81
2022/04/15 06:45:48;;;;;;;20.15;13.38;;;8.10;99.90;;;;;;4868923;29;20140;-81
2022/04/15 06:48:17;;;;;;;23.38;13.23;;;8.80;99.90;;;;;;4864401;29;20489;-83
2022/04/15 06:50:42;;;;;;;20.75;11.90;;;8.60;99.90;;;;;;4876258;29;20511;-82
2022/04/15 06:53:08;;;;;;;25.45;12.52;;;7.90;99.90;;;;;;4857532;29;20045;-82
2022/04/15 06:55:34;;;;;;;18.02;10.63;;;8.70;99.90;;;;;;4865966;29;20060;-82
2022/04/15 06:58:00;;;;;;;19.80;9.80;;;8.70;99.90;;;;;;4851532;29;20044;-83
2022/04/15 07:00:25;;;;;;;20.67;9.70;;;8.90;99.90;;;;;;4883673;29;20048;-82
2022/04/15 07:02:51;;;;;;;22.38;9.00;;;8.00;99.90;;;;;;4865749;29;20781;-82
2022/04/15 07:05:17;;;;;;;19.17;9.18;;;8.50;99.90;;;;;;4863205;29;20526;-82
2022/04/15 07:07:43;;;;;;;21.42;9.27;;;8.20;99.90;;;;;;4844584;29;20080;-82
2022/04/15 07:10:11;;;;;;;23.00;10.20;;;8.90;99.90;;;;;;4882099;29;20048;-82
2022/04/15 07:12:37;;;;;;;22.58;10.30;;;8.00;99.90;;;;;;4858370;29;20381;-83
2022/04/15 07:15:04;;;;;;;18.85;9.43;;;8.80;99.90;;;;;;4858562;29;20131;-84
2022/04/15 07:17:30;;;;;;;21.90;9.38;;;8.10;99.90;;;;;;4881052;29;20113;-83
2022/04/15 07:19:56;;;;;;;23.20;9.15;;;8.40;99.90;;;;;;4855641;29;20504;-82
2022/04/15 07:22:22;;;;;;;17.95;9.65;;;8.60;99.90;;;;;;4887883;29;20052;-82
2022/04/15 07:24:49;;;;;;;22.38;9.88;;;8.30;99.90;;;;;;4876486;29;20036;-83
2022/04/15 07:27:15;;;;;;;22.38;9.18;;;8.40;99.90;;;;;;4876541;29;20048;-82
2022/04/15 07:29:42;;;;;;;22.63;8.68;;;8.70;99.90;;;;;;4860402;29;20582;-83
2022/04/15 07:32:11;;;;;;;19.33;7.80;;;8.80;99.90;;;;;;4841973;29;20088;-82
2022/04/15 07:34:37;;;;;;;15.75;7.20;;;8.50;99.90;;;;;;4853489;29;20435;-82
2022/04/15 07:37:03;;;;;;;14.68;6.35;;;8.70;99.90;;;;;;4849413;29;20073;-82
2022/04/15 07:39:29;;;;;;;14.55;5.88;;;8.60;99.90;;;;;;4856419;29;20049;-83
2022/04/15 07:41:55;;;;;;;12.73;5.53;;;9.60;99.90;;;;;;4841662;29;20049;-83
2022/04/15 07:44:21;;;;;;;12.43;6.03;;;8.70;99.90;;;;;;4856740;29;20056;-83
2022/04/15 07:46:47;;;;;;;13.65;5.43;;;9.60;99.90;;;;;;4841242;29;20457;-82
2022/04/15 07:49:14;;;;;;;12.02;5.07;;;8.80;99.90;;;;;;4842143;29;20045;-83
2022/04/15 07:51:40;;;;;;;9.52;4.38;;;8.00;99.90;;;;;;4842210;29;20507;-83
2022/04/15 07:54:07;;;;;;;12.40;4.57;;;9.70;99.90;;;;;;4856317;29;20081;-83
2022/04/15 07:56:32;;;;;;;12.20;4.55;;;9.00;99.90;;;;;;4857291;29;20061;-83
2022/04/15 07:58:59;;;;;;;11.65;4.13;;;9.60;99.90;;;;;;4840840;29;20050;-83
2022/04/15 08:01:31;;;;;;;9.40;5.10;;;9.20;99.90;;;;;;4841503;29;20053;-82
2022/04/15 08:03:58;;;;;;;15.83;5.20;;;9.80;99.90;;;;;;4856772;29;20052;-83
2022/04/15 08:06:36;;;;;;;12.73;5.93;;;10.10;99.90;;;;;;4841658;29;20049;-83
2022/04/15 08:09:02;;;;;;;12.02;5.88;;;10.10;99.90;;;;;;4856418;29;20057;-83
2022/04/15 08:11:28;;;;;;;12.60;5.82;;;9.20;99.90;;;;;;4857004;29;20379;-83
2022/04/15 08:13:55;;;;;;;14.18;5.95;;;9.60;99.90;;;;;;4854883;29;20144;-83
2022/04/15 08:16:22;;;;;;;9.05;4.88;;;9.40;99.90;;;;;;4873867;29;20101;-83
2022/04/15 08:18:56;;;;;;;8.93;3.63;;;9.60;99.90;;;;;;4843869;29;20557;-82
2022/04/15 08:21:23;;;;;;;14.25;4.40;;;9.40;99.90;;;;;;4841525;29;20080;-83
2022/04/15 08:23:48;;;;;;;10.02;4.78;;;10.10;99.90;;;;;;4841867;29;20379;-83
2022/04/15 08:26:23;;;;;;;12.68;5.10;;;9.60;99.90;;;;;;4856780;29;20081;-83
2022/04/15 08:28:49;;;;;;;9.38;5.00;;;10.00;99.90;;;;;;4875590;29;20088;-82
2022/04/15 08:31:15;;;;;;;14.77;4.47;;;10.10;99.90;;;;;;4860604;29;20520;-82
2022/04/15 08:33:41;;;;;;;9.15;4.53;;;9.90;99.90;;;;;;4877498;29;20049;-82
2022/04/15 08:36:06;;;;;;;10.25;4.95;;;10.00;99.90;;;;;;4871757;29;20048;-83
2022/04/15 08:38:41;;;;;;;11.50;4.63;;;10.70;99.90;;;;;;4850795;29;20064;-82
2022/04/15 08:41:11;;;;;;;12.63;4.88;;;11.00;99.90;;;;;;4868353;29;20131;-82
2022/04/15 08:43:36;;;;;;;14.13;5.28;;;10.40;99.90;;;;;;4850843;29;20127;-82
2022/04/15 08:46:03;;;;;;;9.57;5.15;;;10.80;99.90;;;;;;4864589;29;20048;-82
2022/04/15 08:48:30;;;;;;;10.95;4.72;;;10.70;99.90;;;;;;4864869;29;20051;-82
2022/04/15 08:50:59;;;;;;;10.20;4.18;;;11.30;99.90;;;;;;4861635;29;20061;-89
2022/04/15 08:53:25;;;;;;;8.15;4.00;;;11.20;99.90;;;;;;4875392;29;20052;-82
2022/04/15 08:55:50;;;;;;;12.45;4.40;;;11.30;99.90;;;;;;4854079;29;20105;-82
2022/04/15 08:58:16;;;;;;;10.73;4.78;;;11.50;99.90;;;;;;4851654;29;20056;-82
2022/04/15 09:00:42;;;;;;;10.38;4.70;;;11.30;99.90;;;;;;4859876;29;20406;-82
2022/04/15 09:03:08;;;;;;;9.52;4.95;;;11.10;99.90;;;;;;4859412;29;20078;-82
2022/04/15 09:05:42;;;;;;;10.77;4.72;;;11.40;99.90;;;;;;4864978;29;20055;-82
2022/04/15 09:08:10;;;;;;;13.13;5.20;;;10.80;99.90;;;;;;4861516;29;20048;-83
2022/04/15 09:10:37;;;;;;;10.25;4.53;;;10.60;99.90;;;;;;4881669;29;20064;-82
2022/04/15 09:13:04;;;;;;;10.57;4.57;;;11.10;99.90;;;;;;4857642;29;20053;-82
2022/04/15 09:15:30;;;;;;;11.40;5.20;;;10.60;99.90;;;;;;4872238;29;20057;-82
2022/04/15 09:18:28;;;;;;;9.25;5.10;;;10.60;99.90;;;;;;4853911;29;20032;-83
2022/04/15 09:21:13;;;;;;;13.68;5.13;;;10.70;99.90;;;;;;4846304;29;20049;-83
2022/04/15 09:23:40;;;;;;;10.35;5.10;;;10.70;99.90;;;;;;4865425;29;20052;-84
2022/04/15 09:26:05;;;;;;;13.27;5.00;;;11.00;99.90;;;;;;4854458;29;20084;-83
2022/04/15 09:28:34;;;;;;;15.70;4.80;;;11.10;99.90;;;;;;4875067;29;20087;-83
2022/04/15 09:31:00;;;;;;;12.07;5.07;;;11.00;99.90;;;;;;4873293;29;20485;-83
2022/04/15 09:33:26;;;;;;;9.38;4.60;;;11.10;99.90;;;;;;4888371;29;20100;-83
2022/04/15 09:35:55;;;;;;;14.43;5.75;;;11.60;99.90;;;;;;4890004;29;20071;-83
2022/04/15 09:38:41;;;;;;;12.90;5.22;;;11.40;99.90;;;;;;4861240;29;20127;-83
2022/04/15 09:41:19;;;;;;;12.93;6.07;;;11.30;99.90;;;;;;4868976;29;20420;-83
2022/04/15 09:43:52;;;;;;;12.75;5.47;;;11.60;99.90;;;;;;4848400;29;20059;-83
2022/04/15 09:46:18;;;;;;;;;;;11.10;99.90;;;;;;4872281;29;20055;-83
2022/04/15 09:49:03;;;;;;;14.75;5.13;;;11.10;99.90;;;;;;4862115;29;19981;-83
2022/04/15 09:51:30;;;;;;;12.02;5.45;;;11.00;99.90;;;;;;4874644;29;20063;-82
2022/04/15 09:54:01;;;;;;;13.63;5.97;;;11.10;99.90;;;;;;4870597;29;20048;-82
2022/04/15 09:56:28;;;;;;;9.13;5.38;;;11.00;99.90;;;;;;4851438;29;20511;-85
2022/04/15 09:59:08;;;;;;;9.05;5.22;;;11.00;99.90;;;;;;4856554;29;20425;-85
2022/04/15 10:01:39;;;;;;;10.25;5.50;;;10.90;99.90;;;;;;4858030;29;20064;-88
2022/04/15 10:04:05;;;;;;;10.98;5.28;;;10.80;99.90;;;;;;4850494;29;20354;-83
2022/04/15 10:06:32;;;;;;;11.52;5.50;;;10.80;99.90;;;;;;4866283;29;20049;-83
2022/04/15 10:09:03;;;;;;;13.40;4.93;;;10.80;99.90;;;;;;4853999;29;20729;-84
2022/04/15 10:11:32;;;;;;;8.90;4.30;;;11.30;99.90;;;;;;4844316;29;20465;-83
2022/04/15 10:13:58;;;;;;;7.90;4.18;;;11.00;99.90;;;;;;4860205;29;20037;-85
2022/04/15 10:16:37;;;;;;;8.65;4.38;;;11.90;99.90;;;;;;4857089;29;20281;-84
2022/04/15 10:19:04;;;;;;;10.07;4.40;;;11.10;99.90;;;;;;4850867;29;20055;-85
2022/04/15 10:21:37;;;;;;;7.57;4.15;;;11.20;99.90;;;;;;4854536;29;20499;-84
2022/04/15 10:24:04;;;;;;;8.10;4.03;;;11.30;99.90;;;;;;4868820;29;20045;-83
2022/04/15 10:26:39;;;;;;;9.38;4.93;;;11.40;99.90;;;;;;4858815;29;20055;-86
2022/04/15 10:29:05;;;;;;;8.88;4.55;;;11.40;99.90;;;;;;4864610;29;20575;-84
2022/04/15 10:31:40;;;;;;;9.68;4.75;;;11.40;99.90;;;;;;4849550;29;20044;-83
2022/04/15 10:34:12;;;;;;;11.30;5.53;;;11.30;99.90;;;;;;4867359;29;20048;-83
2022/04/15 10:36:38;;;;;;;11.52;5.15;;;11.10;99.90;;;;;;4858425;29;20405;-83
2022/04/15 10:39:06;;;;;;;8.25;4.20;;;11.10;99.90;;;;;;4851586;29;20784;-83
2022/04/15 10:41:41;;;;;;;9.02;4.35;;;11.00;99.90;;;;;;4866494;29;20048;-82
2022/04/15 10:44:10;;;;;;;8.15;4.88;;;10.90;99.90;;;;;;4875623;29;20069;-82
2022/04/15 10:46:37;;;;;;;7.18;4.22;;;10.90;99.90;;;;;;4876980;29;20651;-82
2022/04/15 10:49:23;;;;;;;8.65;4.13;;;10.80;99.90;;;;;;4841523;29;20398;-83
2022/04/15 10:51:58;;;;;;;7.03;3.75;;;10.80;99.90;;;;;;4842672;29;20051;-82
2022/04/15 10:54:35;;;;;;;6.63;3.65;;;10.80;99.90;;;;;;4843323;29;20052;-82
2022/04/15 10:57:03;;;;;;;8.63;4.65;;;10.80;99.90;;;;;;4857417;29;20139;-83
2022/04/15 11:02:20;;;;;;;9.32;4.32;;;10.90;99.90;;;;;;4874232;29;20156;-82
2022/04/15 11:04:50;;;;;;;10.68;4.10;;;10.90;99.90;;;;;;4864984;29;20048;-82
2022/04/15 11:07:27;;;;;;;7.25;4.70;;;10.80;99.90;;;;;;4848409;29;20041;-83
2022/04/15 11:09:53;;;;;;;8.52;3.92;;;10.80;99.90;;;;;;4859074;29;20056;-83
2022/04/15 11:12:42;;;;;;;9.13;4.65;;;11.40;99.90;;;;;;4843132;29;20081;-83
2022/04/15 11:15:08;;;;;;;9.07;4.45;;;10.70;99.90;;;;;;4841431;29;20409;-83
2022/04/15 11:17:39;;;;;;;10.80;4.32;;;10.60;99.90;;;;;;4843078;29;20139;-83
2022/04/15 11:20:08;;;;;;;8.60;4.68;;;10.60;99.90;;;;;;4850183;29;20237;-84
2022/04/15 11:22:38;;;;;;;8.57;4.50;;;10.60;99.90;;;;;;4848330;29;20105;-85
2022/04/15 11:25:07;;;;;;;10.10;5.20;;;10.60;99.90;;;;;;4844176;29;20586;-83
2022/04/15 11:27:35;;;;;;;9.05;4.57;;;10.60;99.90;;;;;;4856324;29;20611;-83
2022/04/15 11:30:05;;;;;;;9.98;4.55;;;10.70;99.90;;;;;;4859049;29;20398;-83
2022/04/15 11:32:31;;;;;;;13.75;4.20;;;10.80;99.90;;;;;;4860539;29;20427;-83
2022/04/15 11:35:03;;;;;;;7.07;3.92;;;10.90;99.90;;;;;;4868067;29;20124;-83
2022/04/15 11:37:28;;;;;;;8.52;4.72;;;10.80;99.90;;;;;;4868296;29;20067;-83
2022/04/15 11:39:57;;;;;;;8.52;4.45;;;10.80;99.90;;;;;;4873049;29;20044;-83
2022/04/15 11:42:23;;;;;;;8.15;4.47;;;10.80;99.90;;;;;;4849951;29;20095;-83
2022/04/15 11:44:49;;;;;;;8.15;3.75;;;11.10;99.90;;;;;;4855513;29;20088;-82
2022/04/15 11:47:19;;;;;;;9.85;4.40;;;10.80;99.90;;;;;;4868018;29;20052;-82
2022/04/15 11:49:47;;;;;;;9.85;4.25;;;10.90;99.90;;;;;;4870756;29;20131;-83
2022/04/15 11:52:27;;;;;;;9.95;4.68;;;11.10;99.90;;;;;;4859434;29;20061;-83
2022/04/15 11:54:54;;;;;;;9.02;4.60;;;10.90;99.90;;;;;;4875552;29;20080;-83
2022/04/15 11:57:20;;;;;;;8.95;4.38;;;10.90;99.90;;;;;;4862316;29;20053;-83
2022/04/15 11:59:46;;;;;;;10.82;4.53;;;10.90;99.90;;;;;;4861076;29;20123;-83
2022/04/15 12:02:18;;;;;;;11.30;3.90;;;10.90;99.90;;;;;;4870384;29;20104;-83
2022/04/15 12:04:49;;;;;;;10.27;3.85;;;10.80;99.90;;;;;;4853675;29;20049;-83
2022/04/15 12:07:17;;;;;;;7.53;4.05;;;10.80;99.90;;;;;;4872974;29;20045;-83
2022/04/15 12:09:45;;;;;;;9.38;4.50;;;10.70;99.90;;;;;;4855646;29;20048;-83
2022/04/15 12:12:19;;;;;;;8.50;4.20;;;11.00;99.90;;;;;;4850567;29;20068;-86
2022/04/15 12:14:49;;;;;;;10.98;4.20;;;10.70;99.90;;;;;;4852819;29;20037;-85
2022/04/15 12:17:15;;;;;;;9.85;4.03;;;10.70;99.90;;;;;;4851595;29;20109;-83
2022/04/15 12:19:41;;;;;;;8.52;4.10;;;10.80;99.90;;;;;;4865347;29;20052;-82
2022/04/15 12:22:08;;;;;;;11.00;4.90;;;10.70;99.90;;;;;;4847983;29;20052;-82
2022/04/15 12:24:34;;;;;;;6.63;3.88;;;10.90;99.90;;;;;;4856219;29;20040;-82
2022/04/15 12:27:00;;;;;;;9.82;4.18;;;10.80;99.90;;;;;;4870245;29;20048;-83
2022/04/15 12:32:32;;;;;;;10.10;4.40;;;10.80;99.90;;;;;;4866377;29;20135;-83
2022/04/15 12:34:59;;;;;;;6.13;3.80;;;10.70;99.90;;;;;;4876269;29;20147;-81
2022/04/15 12:37:41;;;;;;;11.07;4.53;;;10.70;99.90;;;;;;4865006;29;20112;-83
2022/04/15 12:40:26;;;;;;;9.18;4.43;;;10.60;99.90;;;;;;4853338;29;20036;-81
2022/04/15 12:42:53;;;;;;;8.20;4.15;;;10.70;99.90;;;;;;4844845;29;20045;-82
2022/04/15 12:45:21;;;;;;;18.25;5.00;;;10.60;99.90;;;;;;4855788;29;20080;-81
2022/04/15 12:47:58;;;;;;;8.90;4.63;;;10.70;99.90;;;;;;4870955;29;20056;-82
2022/04/15 12:50:29;;;;;;;9.20;4.03;;;10.70;99.90;;;;;;4848984;29;20053;-82
2022/04/15 12:52:56;;;;;;;9.48;4.10;;;10.80;99.90;;;;;;4856608;29;20181;-83
2022/04/15 12:55:31;;;;;;;7.18;3.90;;;10.70;99.90;;;;;;4876442;29;20040;-81